Time;durP1;ratioP1;P1;durP2;ratioP2;P2;SDS_P1;SDS_P2;PMS_P1;PMS_P2;Temp;Humidity;BMP_temperature;BMP_pressure;BME280_temperature;BME280_humidity;BME280_pressure;Samples;Min_cycle;Max_cycle;Signal;HPM_P1;HPM_P2
2022/12/20 00:02:17;;;;;;;5.22;0.82;;;;;;;12.08;100.00;99731.41;5020019;28;20062;-53
2022/12/20 00:04:43;;;;;;;0.95;0.57;;;;;;;12.09;100.00;99732.22;5025851;28;20033;-54
2022/12/20 00:07:08;;;;;;;5.55;1.65;;;;;;;12.09;100.00;99724.25;5018205;28;20073;-53
2022/12/20 00:09:33;;;;;;;3.42;0.60;;;;;;;12.07;100.00;99726.31;5024880;28;20037;-54
2022/12/20 00:11:59;;;;;;;1.08;0.20;;;;;;;12.09;100.00;99734.88;5025181;28;20112;-52
2022/12/20 00:14:24;;;;;;;1.13;0.20;;;;;;;12.02;100.00;99712.88;5023407;28;20041;-50
2022/12/20 00:16:49;;;;;;;6.10;1.23;;;;;;;11.88;100.00;99734.25;5023977;28;20836;-55
2022/12/20 00:19:15;;;;;;;5.43;1.77;;;;;;;11.85;100.00;99739.13;5026670;28;20032;-53
2022/12/20 00:21:40;;;;;;;4.07;0.52;;;;;;;11.81;100.00;99732.63;5029146;28;20109;-57
2022/12/20 00:24:06;;;;;;;3.92;0.40;;;;;;;11.77;100.00;99735.72;5026149;28;20030;-56
2022/12/20 00:26:33;;;;;;;0.77;0.30;;;;;;;11.76;100.00;99751.88;5031111;28;20038;-56
2022/12/20 00:28:59;;;;;;;1.98;0.47;;;;;;;11.72;100.00;99740.03;5026675;28;20136;-49
2022/12/20 00:31:26;;;;;;;4.45;0.35;;;;;;;11.70;100.00;99732.31;5024096;28;20550;-56
2022/12/20 00:33:53;;;;;;;2.50;0.38;;;;;;;11.65;100.00;99724.19;5019996;28;20067;-55
2022/12/20 00:36:20;;;;;;;6.22;1.48;;;;;;;11.61;100.00;99727.47;5033820;28;20176;-55
2022/12/20 00:38:47;;;;;;;3.33;0.52;;;;;;;11.60;100.00;99731.19;5028617;28;20148;-54
2022/12/20 00:41:19;;;;;;;0.88;0.20;;;;;;;11.57;100.00;99735.06;5029165;28;20031;-56
2022/12/20 00:43:45;;;;;;;2.90;0.68;;;;;;;11.55;100.00;99724.66;5041681;28;20025;-54
2022/12/20 00:46:12;;;;;;;1.85;0.20;;;;;;;11.55;100.00;99735.28;5033564;28;20017;-55
2022/12/20 00:48:37;;;;;;;3.42;1.13;;;;;;;11.58;100.00;99742.81;5028360;28;20037;-52
2022/12/20 00:51:08;;;;;;;1.65;0.50;;;;;;;11.64;100.00;99745.63;5022301;28;20030;-51
2022/12/20 00:53:34;;;;;;;3.92;1.20;;;;;;;11.62;100.00;99737.09;5038107;28;20033;-53
2022/12/20 00:56:00;;;;;;;2.30;1.15;;;;;;;11.60;100.00;99742.59;5029876;28;20442;-55
2022/12/20 00:58:26;;;;;;;3.92;0.30;;;;;;;11.61;100.00;99748.72;5021955;28;20088;-56
2022/12/20 01:00:52;;;;;;;2.22;0.20;;;;;;;11.57;100.00;99743.03;5027086;28;20040;-55
2022/12/20 01:03:17;;;;;;;4.00;0.63;;;;;;;11.57;100.00;99743.03;5027679;28;20030;-55
2022/12/20 01:05:54;;;;;;;0.47;0.10;;;;;;;11.58;100.00;99744.66;5022912;28;20357;-51
2022/12/20 01:08:20;;;;;;;1.55;0.13;;;;;;;11.60;100.00;99747.91;5027826;28;20109;-56
2022/12/20 01:10:46;;;;;;;3.95;0.20;;;;;;;11.55;100.00;99739.78;5029578;28;20052;-54
2022/12/20 01:13:12;;;;;;;2.05;0.77;;;;;;;11.57;100.00;99754.47;5027936;28;20034;-55
2022/12/20 01:15:37;;;;;;;4.10;0.80;;;;;;;11.56;100.00;99750.19;5029850;28;20140;-54
2022/12/20 01:18:03;;;;;;;1.48;0.10;;;;;;;11.59;100.00;99751.59;5036812;28;20059;-55
2022/12/20 01:20:28;;;;;;;1.67;1.55;;;;;;;11.60;100.00;99752.41;5025498;28;20033;-56
2022/12/20 01:22:53;;;;;;;1.70;0.05;;;;;;;11.66;100.00;99747.03;5023880;28;20033;-56
2022/12/20 01:25:19;;;;;;;5.40;0.82;;;;;;;11.68;100.00;99752.16;5028814;28;20368;-53
2022/12/20 01:27:45;;;;;;;2.67;0.20;;;;;;;11.72;100.00;99746.19;5032386;28;20501;-53
2022/12/20 01:30:11;;;;;;;5.47;0.30;;;;;;;11.73;100.00;99749.66;5023172;28;20029;-55
2022/12/20 01:32:36;;;;;;;3.55;0.68;;;;;;;11.74;100.00;99749.41;5028110;28;20029;-56
2022/12/20 01:35:01;;;;;;;1.90;0.20;;;;;;;11.70;100.00;99750.91;5025341;28;20057;-54
2022/12/20 01:37:27;;;;;;;4.05;0.90;;;;;;;11.68;100.00;99744.19;5026023;28;20029;-57
2022/12/20 01:39:52;;;;;;;7.03;0.63;;;;;;;11.71;100.00;99739.25;5027690;28;20470;-54
2022/12/20 01:42:17;;;;;;;5.28;0.30;;;;;;;11.78;100.00;99744.50;5032855;28;20037;-55
2022/12/20 01:44:43;;;;;;;8.93;1.40;;;;;;;11.74;100.00;99748.63;5023822;28;20026;-57
2022/12/20 01:47:10;;;;;;;5.15;0.30;;;;;;;11.75;100.00;99735.13;5024542;28;20055;-57
2022/12/20 01:49:45;;;;;;;2.40;0.20;;;;;;;11.82;100.00;99739.56;5023728;28;20056;-55
2022/12/20 01:52:16;;;;;;;2.00;0.13;;;;;;;11.79;100.00;99735.50;5027175;28;20026;-54
2022/12/20 01:54:44;;;;;;;1.23;0.60;;;;;;;11.77;100.00;99726.94;5023199;28;20088;-58
2022/12/20 01:57:19;;;;;;;5.18;0.77;;;;;;;11.82;100.00;99735.06;5026261;28;20026;-55
2022/12/20 01:59:47;;;;;;;5.03;1.38;;;;;;;11.82;100.00;99735.06;5027107;28;20062;-55
2022/12/20 02:02:12;;;;;;;7.55;0.95;;;;;;;11.84;100.00;99733.00;5027508;28;20487;-58
2022/12/20 02:04:39;;;;;;;2.47;0.55;;;;;;;11.87;100.00;99726.47;5025419;28;20087;-58
2022/12/20 02:07:06;;;;;;;5.55;0.88;;;;;;;11.84;100.00;99722.38;5026938;28;20061;-58
2022/12/20 02:09:34;;;;;;;4.80;1.27;;;;;;;11.81;100.00;99716.69;5026733;28;20538;-53
2022/12/20 02:12:14;;;;;;;6.35;0.90;;;;;;;11.84;100.00;99711.75;5030897;28;20398;-55
2022/12/20 02:15:04;;;;;;;2.97;0.30;;;;;;;11.82;100.00;99719.13;5021581;28;20129;-57
2022/12/20 02:18:13;;;;;;;6.25;0.30;;;;;;;11.81;100.00;99717.50;5028864;28;20033;-58
2022/12/20 02:21:01;;;;;;;1.75;0.70;;;;;;;11.76;100.00;99714.69;5031477;28;20469;-55
2022/12/20 02:23:45;;;;;;;4.55;0.40;;;;;;;11.76;100.00;99712.03;5028289;28;20025;-55
2022/12/20 02:26:55;;;;;;;3.85;1.27;;;;;;;11.79;100.00;99727.53;5024799;28;20038;-52
2022/12/20 02:29:21;;;;;;;0.75;0.15;;;;;;;11.80;100.00;99721.22;5024748;28;20805;-52
2022/12/20 02:32:00;;;;;;;5.05;0.45;;;;;;;11.86;100.00;99711.56;5021976;28;20060;-51
2022/12/20 02:34:28;;;;;;;8.10;0.82;;;;;;;11.87;100.00;99702.56;5030401;28;20379;-54
2022/12/20 02:36:53;;;;;;;1.77;0.10;;;;;;;11.89;100.00;99700.50;5023783;28;20026;-55
2022/12/20 02:39:22;;;;;;;3.35;0.47;;;;;;;11.90;100.00;99696.81;5026446;28;20030;-56
2022/12/20 02:41:52;;;;;;;14.43;1.40;;;;;;;11.92;100.00;99692.09;5026410;28;20026;-53
2022/12/20 02:47:12;;;;;;;3.72;0.55;;;;;;;11.90;100.00;99688.84;5035619;28;20139;-54
2022/12/20 02:49:40;;;;;;;6.55;1.08;;;;;;;11.92;100.00;99674.31;5029718;28;20117;-57
2022/12/20 02:52:07;;;;;;;4.43;1.05;;;;;;;11.92;100.00;99669.00;5037698;28;20032;-56
2022/12/20 02:54:34;;;;;;;7.25;0.52;;;;;;;11.89;100.00;99661.47;5035563;28;20064;-53
2022/12/20 02:57:08;;;;;;;2.58;0.77;;;;;;;11.88;100.00;99664.38;5030062;28;20120;-57
2022/12/20 02:59:50;;;;;;;8.07;0.77;;;;;;;11.93;100.00;99657.38;5039571;28;20041;-56
2022/12/20 03:02:16;;;;;;;16.30;2.42;;;;;;;11.91;100.00;99646.13;5028533;28;20034;-56
2022/12/20 03:04:43;;;;;;;4.47;1.15;;;;;;;12.00;100.00;99641.34;5034454;28;20021;-53
2022/12/20 03:07:11;;;;;;;4.32;0.57;;;;;;;12.00;100.00;99644.00;5032509;28;20044;-52
2022/12/20 03:09:41;;;;;;;1.90;0.60;;;;;;;12.03;100.00;99640.09;5034483;28;20487;-56
2022/12/20 03:12:08;;;;;;;4.18;1.70;;;;;;;12.03;100.00;99632.94;5035147;28;20041;-53
2022/12/20 03:14:33;;;;;;;6.20;1.23;;;;;;;11.99;100.00;99619.28;5028682;28;20117;-54
2022/12/20 03:16:59;;;;;;;6.55;1.23;;;;;;;11.98;100.00;99632.81;5029619;28;20527;-51
2022/12/20 03:19:24;;;;;;;5.07;1.60;;;;;;;11.94;100.00;99627.09;5029295;28;20033;-53
2022/12/20 03:21:50;;;;;;;5.68;1.63;;;;;;;11.93;100.00;99616.72;5036758;28;20024;-55
2022/12/20 03:24:16;;;;;;;5.25;1.20;;;;;;;11.92;100.00;99601.78;5028172;28;20048;-53
2022/12/20 03:26:42;;;;;;;5.20;0.90;;;;;;;11.91;100.00;99595.66;5027128;28;20433;-53
2022/12/20 03:29:08;;;;;;;4.28;0.88;;;;;;;11.93;100.00;99600.78;5034083;28;20052;-53
2022/12/20 03:31:34;;;;;;;8.40;1.65;;;;;;;11.92;100.00;99602.59;5030749;28;20383;-54
2022/12/20 03:33:59;;;;;;;2.70;0.30;;;;;;;11.87;100.00;99591.81;5026240;28;20025;-55
2022/12/20 03:36:25;;;;;;;3.60;1.13;;;;;;;11.85;100.00;99599.19;5030064;28;20036;-54
2022/12/20 03:38:51;;;;;;;2.85;1.25;;;;;;;11.85;100.00;99598.34;5030559;28;20036;-55
2022/12/20 03:41:17;;;;;;;2.95;0.68;;;;;;;11.86;100.00;99619.44;5038015;28;20032;-54
2022/12/20 03:43:43;;;;;;;5.20;2.58;;;;;;;11.85;100.00;99601.84;5038594;28;20020;-56
2022/12/20 03:46:08;;;;;;;6.60;0.68;;;;;;;11.81;100.00;99605.16;5023561;28;20109;-54
2022/12/20 03:48:34;;;;;;;3.17;0.90;;;;;;;11.87;100.00;99601.63;5027425;28;20061;-54
2022/12/20 03:50:59;;;;;;;4.85;0.95;;;;;;;11.84;100.00;99605.50;5027604;28;20148;-56
2022/12/20 03:53:24;;;;;;;8.10;0.32;;;;;;;11.81;100.00;99607.81;5017588;28;20026;-52
2022/12/20 03:55:49;;;;;;;3.20;0.85;;;;;;;11.77;100.00;99605.59;5029995;28;20029;-56
2022/12/20 03:58:15;;;;;;;2.75;0.40;;;;;;;11.77;100.00;99607.41;5017845;28;20025;-54
2022/12/20 04:00:41;;;;;;;3.55;0.40;;;;;;;11.76;100.00;99597.84;5027555;28;20059;-55
2022/12/20 04:03:06;;;;;;;3.03;0.57;;;;;;;11.74;100.00;99606.00;5030295;28;20017;-56
2022/12/20 04:05:32;;;;;;;8.35;0.98;;;;;;;11.74;100.00;99605.22;5030728;28;20040;-52
2022/12/20 04:07:57;;;;;;;2.22;0.50;;;;;;;11.72;100.00;99610.75;5039937;28;20021;-57
2022/12/20 04:10:22;;;;;;;2.95;0.50;;;;;;;11.75;100.00;99598.88;5036296;28;20076;-54
2022/12/20 04:12:48;;;;;;;3.75;0.85;;;;;;;11.73;100.00;99606.25;5030280;28;20135;-54
2022/12/20 04:15:13;;;;;;;2.28;0.98;;;;;;;11.73;100.00;99600.94;5027378;28;20108;-55
2022/12/20 04:17:38;;;;;;;5.10;0.52;;;;;;;11.69;100.00;99599.75;5027584;28;20477;-54
2022/12/20 04:20:17;;;;;;;5.15;0.82;;;;;;;11.67;100.00;99588.53;5028790;28;20549;-54
2022/12/20 04:22:50;;;;;;;3.30;0.47;;;;;;;11.69;100.00;99586.47;5025478;28;20370;-55
2022/12/20 04:25:18;;;;;;;4.28;0.45;;;;;;;11.61;100.00;99581.44;5023568;28;20035;-51
2022/12/20 04:27:44;;;;;;;6.53;0.38;;;;;;;11.61;100.00;99592.06;5031841;28;20108;-54
2022/12/20 04:30:10;;;;;;;3.50;0.77;;;;;;;11.62;100.00;99585.75;5020893;28;20574;-52
2022/12/20 04:32:36;;;;;;;5.05;0.40;;;;;;;11.61;100.00;99590.22;5025717;28;20022;-55
2022/12/20 04:35:02;;;;;;;1.90;0.30;;;;;;;11.58;100.00;99588.00;5019156;28;20740;-54
2022/12/20 04:37:29;;;;;;;2.55;0.50;;;;;;;11.62;100.00;99591.06;5027744;28;20033;-55
2022/12/20 04:39:55;;;;;;;2.92;0.65;;;;;;;11.63;100.00;99597.97;5033670;28;20036;-54
2022/12/20 04:42:20;;;;;;;3.28;0.30;;;;;;;11.61;100.00;99605.34;5022139;28;20356;-57
2022/12/20 04:44:46;;;;;;;3.15;0.75;;;;;;;11.60;100.00;99593.09;5028678;28;20324;-53
2022/12/20 04:47:11;;;;;;;0.98;0.55;;;;;;;11.59;100.00;99597.63;5031202;28;20096;-52
2022/12/20 04:49:36;;;;;;;4.03;0.65;;;;;;;11.60;100.00;99598.41;5026277;28;20508;-56
2022/12/20 04:54:46;;;;;;;1.88;0.30;;;;;;;11.58;100.00;99596.78;5026268;28;20056;-55
2022/12/20 04:57:12;;;;;;;2.88;0.63;;;;;;;11.61;100.00;99592.06;5028449;28;20029;-52
2022/12/20 04:59:37;;;;;;;3.80;1.55;;;;;;;11.65;100.00;99594.06;5022342;28;20072;-51
2022/12/20 05:02:02;;;;;;;3.22;0.20;;;;;;;11.66;100.00;99593.03;5025555;28;20044;-53
2022/12/20 05:04:28;;;;;;;3.10;1.27;;;;;;;11.67;100.00;99605.28;5021624;28;20045;-57
2022/12/20 05:06:53;;;;;;;3.65;0.93;;;;;;;11.66;100.00;99602.84;5024711;28;20049;-53
2022/12/20 05:09:18;;;;;;;4.25;0.95;;;;;;;11.67;100.00;99594.66;5028339;28;20036;-52
2022/12/20 05:11:44;;;;;;;1.30;0.20;;;;;;;11.75;100.00;99606.84;5028933;28;20032;-53
2022/12/20 05:14:09;;;;;;;4.00;2.00;;;;;;;11.78;100.00;99609.88;5025748;28;20026;-51
2022/12/20 05:16:36;;;;;;;2.20;0.52;;;;;;;11.83;100.00;99614.53;5016878;28;20037;-54
2022/12/20 05:19:03;;;;;;;1.27;0.20;;;;;;;11.83;100.00;99619.03;5020028;28;20417;-56
2022/12/20 05:26:56;;;;;;;2.50;0.28;;;;;;;11.91;100.00;99653.31;5030437;28;20109;-57
2022/12/20 05:29:22;;;;;;;0.68;0.20;;;;;;;11.81;100.00;99688.28;5037876;28;20104;-60
2022/12/20 05:31:48;;;;;;;2.38;0.00;;;;;;;11.56;100.00;99665.25;5026627;28;20056;-60
2022/12/20 05:34:13;;;;;;;0.00;0.00;;;;;;;11.32;100.00;99679.28;5021491;28;20022;-60
2022/12/20 05:36:39;;;;;;;0.00;0.00;;;;;;;11.05;100.00;99671.53;5034005;28;20417;-59
2022/12/20 05:39:05;;;;;;;0.00;0.00;;;;;;;10.86;100.00;99680.41;5031088;28;20058;-57
2022/12/20 05:41:30;;;;;;;0.00;0.00;;;;;;;10.81;100.00;99701.44;5032539;28;21786;-57
2022/12/20 05:43:56;;;;;;;0.00;0.00;;;;;;;10.67;100.00;99696.19;5028659;28;20021;-57
2022/12/20 05:46:21;;;;;;;0.00;0.00;;;;;;;10.62;100.00;99697.84;5032916;28;20028;-55
2022/12/20 05:48:47;;;;;;;0.00;0.00;;;;;;;10.48;100.00;99699.75;5030340;28;20083;-58
2022/12/20 05:51:12;;;;;;;0.00;0.00;;;;;;;10.37;100.00;99705.69;5023535;28;20068;-57
2022/12/20 05:53:38;;;;;;;0.00;0.00;;;;;;;10.31;100.00;99722.41;5022536;28;20029;-58
2022/12/20 05:56:03;;;;;;;1.75;0.00;;;;;;;10.03;100.00;99718.16;5035403;28;20033;-55
2022/12/20 05:58:29;;;;;;;0.00;0.00;;;;;;;9.86;100.00;99709.81;5029307;28;20025;-57
2022/12/20 06:00:55;;;;;;;0.00;0.00;;;;;;;9.59;100.00;99719.59;5029721;28;20044;-56
2022/12/20 06:03:21;;;;;;;0.00;0.00;;;;;;;9.51;100.00;99727.72;5020183;28;20030;-56
2022/12/20 06:05:46;;;;;;;0.00;0.00;;;;;;;9.45;100.00;99729.38;5028984;28;20120;-57
2022/12/20 06:08:12;;;;;;;0.00;0.00;;;;;;;9.47;100.00;99723.84;5023758;28;20096;-56
2022/12/20 06:10:39;;;;;;;0.00;0.00;;;;;;;9.46;100.00;99732.81;5028075;28;20041;-56
2022/12/20 06:13:05;;;;;;;0.00;0.00;;;;;;;9.39;100.00;99730.97;5034094;28;20030;-59
2022/12/20 06:15:30;;;;;;;0.00;0.00;;;;;;;9.34;100.00;99743.97;5026164;28;20048;-58
2022/12/20 06:17:56;;;;;;;0.00;0.00;;;;;;;9.30;100.00;99742.75;5035280;28;20055;-57
2022/12/20 06:20:21;;;;;;;0.00;0.00;;;;;;;9.29;100.00;99745.59;5029917;28;20121;-60
2022/12/20 06:22:46;;;;;;;0.00;0.00;;;;;;;9.25;100.00;99752.31;5024094;28;20022;-58
2022/12/20 06:25:13;;;;;;;0.00;0.00;;;;;;;9.22;100.00;99756.19;5018817;28;20034;-57
2022/12/20 06:27:39;;;;;;;0.00;0.00;;;;;;;9.18;100.00;99761.03;5038834;28;20299;-59
2022/12/20 06:30:06;;;;;;;0.00;0.00;;;;;;;9.24;100.00;99758.59;5029574;28;20386;-61
2022/12/20 06:32:32;;;;;;;0.00;0.00;;;;;;;9.21;100.00;99777.53;5023603;28;20078;-59
2022/12/20 06:34:57;;;;;;;0.00;0.00;;;;;;;9.12;100.00;99779.53;5025092;28;20132;-59
2022/12/20 06:37:23;;;;;;;0.00;0.00;;;;;;;9.04;100.00;99780.53;5023278;28;20036;-58
2022/12/20 06:39:48;;;;;;;0.00;0.00;;;;;;;9.02;100.00;99789.69;5030683;28;20442;-60
2022/12/20 06:42:13;;;;;;;0.00;0.00;;;;;;;8.98;100.00;99793.72;5029586;28;20034;-58
2022/12/20 06:44:39;;;;;;;0.00;0.00;;;;;;;8.94;100.00;99799.41;5025714;28;20386;-57
2022/12/20 06:47:04;;;;;;;0.00;0.00;;;;;;;8.97;100.00;99800.84;5026754;28;20597;-57
2022/12/20 06:49:29;;;;;;;0.45;0.30;;;;;;;8.95;100.00;99806.31;5027223;28;20022;-53
2022/12/20 06:51:55;;;;;;;0.00;0.00;;;;;;;8.93;100.00;99804.88;5035261;28;20025;-59
2022/12/20 06:54:20;;;;;;;0.40;0.00;;;;;;;8.88;100.00;99815.22;5025854;28;20056;-56
2022/12/20 06:56:46;;;;;;;0.00;0.00;;;;;;;8.86;100.00;99836.59;5030779;28;20029;-56
2022/12/20 06:59:11;;;;;;;0.00;0.00;;;;;;;8.82;100.00;99832.69;5033179;28;20390;-57
2022/12/20 07:01:36;;;;;;;0.00;0.00;;;;;;;8.77;100.00;99829.81;5022605;28;20038;-59
2022/12/20 07:04:02;;;;;;;1.75;0.00;;;;;;;8.65;100.00;99844.59;5031654;28;20032;-58
2022/12/20 07:06:28;;;;;;;2.47;0.10;;;;;;;8.63;100.00;99851.91;5026222;28;20065;-61
2022/12/20 07:08:54;;;;;;;0.08;0.00;;;;;;;8.61;100.00;99860.00;5023215;28;20161;-56
2022/12/20 07:11:19;;;;;;;5.47;0.00;;;;;;;8.63;100.00;99867.75;5025495;28;20052;-57
2022/12/20 07:13:44;;;;;;;0.10;0.00;;;;;;;8.66;100.00;99875.31;5020733;28;20024;-57
2022/12/20 07:16:10;;;;;;;0.20;0.20;;;;;;;8.68;100.00;99875.94;5027947;28;20138;-57
2022/12/20 07:18:35;;;;;;;0.00;0.00;;;;;;;8.69;100.00;99874.91;5025958;28;20507;-59
2022/12/20 07:21:02;;;;;;;0.30;0.00;;;;;;;8.70;100.00;99879.19;5022687;28;20105;-58
2022/12/20 07:23:28;;;;;;;1.30;0.00;;;;;;;8.66;100.00;99891.97;5029456;28;20051;-58
2022/12/20 07:25:57;;;;;;;0.00;0.00;;;;;;;8.67;100.00;99898.06;5024966;28;20025;-59
2022/12/20 07:28:24;;;;;;;0.60;0.00;;;;;;;8.65;100.00;99900.09;5032462;28;20026;-55
2022/12/20 07:30:49;;;;;;;0.00;0.00;;;;;;;8.62;100.00;99897.81;5025926;28;20026;-55
2022/12/20 07:33:15;;;;;;;0.10;0.00;;;;;;;8.58;100.00;99900.03;5026709;28;20598;-57
2022/12/20 07:35:40;;;;;;;0.00;0.00;;;;;;;8.55;100.00;99918.13;5025032;28;21021;-57
2022/12/20 07:38:06;;;;;;;0.30;0.00;;;;;;;8.51;100.00;99912.38;5030423;28;20038;-58
2022/12/20 07:40:31;;;;;;;0.00;0.00;;;;;;;8.46;100.00;99926.16;5029832;28;20589;-58
2022/12/20 07:42:56;;;;;;;1.23;0.20;;;;;;;8.41;100.00;99928.56;5031071;28;20067;-59
2022/12/20 07:45:22;;;;;;;0.00;0.00;;;;;;;8.35;100.00;99928.47;5027787;28;20112;-59
2022/12/20 07:47:47;;;;;;;0.00;0.00;;;;;;;8.34;100.00;99934.75;5031532;28;20033;-58
2022/12/20 07:50:12;;;;;;;0.00;0.00;;;;;;;8.28;100.00;99938.97;5032025;28;20026;-58
2022/12/20 07:52:42;;;;;;;0.00;0.00;;;;;;;8.29;100.00;99940.63;5030428;28;20030;-60
2022/12/20 07:55:11;;;;;;;1.75;0.40;;;;;;;8.19;100.00;99943.56;5027601;28;20029;-59
2022/12/20 07:57:45;;;;;;;1.00;0.77;;;;;;;8.02;100.00;99934.25;5022028;28;20041;-60
2022/12/20 08:00:11;;;;;;;0.08;0.00;;;;;;;7.88;100.00;99950.97;5020520;28;20087;-60
2022/12/20 08:02:42;;;;;;;1.45;0.05;;;;;;;7.85;100.00;99960.91;5023140;28;20036;-56
2022/12/20 08:05:08;;;;;;;;;;;;;;;7.80;100.00;99965.09;5018426;28;20438;-59
2022/12/20 08:07:36;;;;;;;1.13;0.22;;;;;;;7.68;100.00;99974.47;5032031;28;19928;-59
2022/12/20 08:10:03;;;;;;;1.35;0.00;;;;;;;7.55;100.00;99980.41;5024268;28;20472;-56
2022/12/20 08:12:30;;;;;;;0.40;0.00;;;;;;;7.46;100.00;99984.13;5019187;28;20398;-59
2022/12/20 08:14:57;;;;;;;2.05;0.45;;;;;;;7.35;100.00;99994.13;5027979;28;20080;-59
2022/12/20 08:17:22;;;;;;;0.90;0.20;;;;;;;7.27;100.00;100006.59;5030513;28;20378;-59
2022/12/20 08:19:50;;;;;;;0.00;0.00;;;;;;;7.23;100.00;100003.53;5026528;28;20029;-57
2022/12/20 08:22:19;;;;;;;0.15;0.00;;;;;;;7.24;100.00;100012.25;5018557;28;20073;-57
2022/12/20 08:24:45;;;;;;;5.00;0.10;;;;;;;7.16;100.00;100011.31;5021332;28;20029;-59
2022/12/20 08:27:10;;;;;;;0.65;0.57;;;;;;;7.18;100.00;100016.44;5023102;28;20040;-57
2022/12/20 08:29:35;;;;;;;1.65;0.10;;;;;;;7.06;100.00;100017.84;5024251;28;20037;-56
2022/12/20 08:32:01;;;;;;;2.10;0.10;;;;;;;6.98;100.00;100024.03;5021266;28;20104;-59
2022/12/20 08:34:26;;;;;;;0.30;0.13;;;;;;;6.96;100.00;100023.38;5026762;28;20045;-60
2022/12/20 08:36:52;;;;;;;6.10;1.45;;;;;;;6.94;100.00;100025.38;5029297;28;20025;-59
2022/12/20 08:39:17;;;;;;;1.42;0.95;;;;;;;6.82;100.00;100024.16;5026367;28;20045;-59
2022/12/20 08:41:43;;;;;;;1.45;0.30;;;;;;;6.74;100.00;100035.59;5014906;28;20113;-58
2022/12/20 08:44:09;;;;;;;2.65;0.10;;;;;;;6.77;100.00;100036.06;5026524;28;20029;-59
2022/12/20 08:46:35;;;;;;;3.60;0.77;;;;;;;6.74;100.00;100023.25;5021694;28;20053;-57
2022/12/20 08:49:02;;;;;;;0.38;0.10;;;;;;;6.56;100.00;100028.00;5019197;28;20060;-59
2022/12/20 08:51:27;;;;;;;1.10;0.10;;;;;;;6.48;100.00;100031.50;5031892;28;20258;-58
2022/12/20 08:53:53;;;;;;;3.65;0.25;;;;;;;6.39;100.00;100035.16;5026892;28;20033;-59
2022/12/20 08:56:19;;;;;;;2.88;0.30;;;;;;;6.41;100.00;100050.81;5020441;28;20438;-59
2022/12/20 08:58:45;;;;;;;4.70;0.20;;;;;;;6.44;100.00;100047.81;5027547;28;20028;-59
2022/12/20 09:01:16;;;;;;;0.55;0.10;;;;;;;6.41;100.00;100041.09;5022127;28;20057;-59
2022/12/20 09:03:42;;;;;;;2.63;0.73;;;;;;;6.36;100.00;100045.25;5022612;28;20043;-60
2022/12/20 09:06:10;;;;;;;1.42;0.80;;;;;;;6.30;100.00;100039.69;5021713;28;20116;-60
2022/12/20 09:08:37;;;;;;;2.28;0.65;;;;;;;6.24;100.00;100052.69;5040476;28;20029;-59
2022/12/20 09:11:27;;;;;;;3.92;1.27;;;;;;;6.22;100.00;100059.94;5027865;28;20367;-60
2022/12/20 09:13:55;;;;;;;2.58;0.85;;;;;;;6.12;100.00;100062.81;5026746;28;20384;-59
2022/12/20 09:16:28;;;;;;;0.32;0.10;;;;;;;6.00;100.00;100056.28;5025217;28;20360;-60
2022/12/20 09:18:56;;;;;;;0.30;0.30;;;;;;;6.01;100.00;100071.06;5016114;28;20037;-56
2022/12/20 09:21:22;;;;;;;1.98;0.70;;;;;;;5.96;100.00;100074.22;5023343;28;20043;-59
2022/12/20 09:23:52;;;;;;;0.93;0.50;;;;;;;6.01;100.00;100068.44;5030345;28;20544;-54
2022/12/20 09:26:18;;;;;;;0.68;0.17;;;;;;;6.03;100.00;100069.09;5031096;28;20368;-58
2022/12/20 09:28:44;;;;;;;1.23;0.10;;;;;;;6.02;100.00;100075.38;5024716;28;20483;-58
2022/12/20 09:31:16;;;;;;;0.45;0.10;;;;;;;6.06;100.00;100071.38;5030008;28;20072;-59
2022/12/20 09:33:41;;;;;;;1.85;0.10;;;;;;;6.07;100.00;100075.69;5020553;28;20491;-58
2022/12/20 09:36:12;;;;;;;1.70;0.00;;;;;;;6.16;100.00;100072.00;5023600;28;20052;-59
2022/12/20 09:38:37;;;;;;;11.02;0.70;;;;;;;6.20;100.00;100086.47;5027178;28;20072;-55
2022/12/20 09:41:05;;;;;;;1.45;0.30;;;;;;;6.27;100.00;100086.59;5018149;28;20061;-60
2022/12/20 09:43:32;;;;;;;2.92;1.25;;;;;;;6.41;100.00;100088.50;5026206;28;20043;-61
2022/12/20 09:46:02;;;;;;;2.40;0.55;;;;;;;6.46;100.00;100095.88;5023424;28;20052;-58
2022/12/20 09:48:32;;;;;;;1.85;0.95;;;;;;;6.54;100.00;100094.00;5023054;28;20646;-59
2022/12/20 09:51:03;;;;;;;2.25;0.25;;;;;;;6.66;100.00;100099.72;5028539;28;20025;-60
2022/12/20 09:53:31;;;;;;;0.55;0.55;;;;;;;6.76;100.00;100105.56;5028122;28;20061;-60
2022/12/20 09:56:09;;;;;;;3.33;0.70;;;;;;;6.82;100.00;100106.69;5018544;28;20232;-60
2022/12/20 09:59:03;;;;;;;6.30;0.35;;;;;;;6.87;100.00;100114.88;5015159;28;20495;-58
2022/12/20 10:01:33;;;;;;;1.17;0.32;;;;;;;6.92;100.00;100117.81;5019460;28;20025;-57
2022/12/20 10:04:03;;;;;;;4.18;0.17;;;;;;;6.99;100.00;100118.72;5026004;28;20489;-58
2022/12/20 10:06:33;;;;;;;1.55;0.10;;;;;;;7.05;100.00;100126.91;5028686;28;20079;-60
2022/12/20 10:09:03;;;;;;;3.10;0.67;;;;;;;7.10;100.00;100138.59;5022940;28;20018;-60
2022/12/20 10:11:49;;;;;;;1.75;0.00;;;;;;;7.17;100.00;100133.41;5016927;28;20649;-58
2022/12/20 10:14:40;;;;;;;1.58;0.20;;;;;;;7.22;100.00;100133.72;5028275;28;20394;-58
2022/12/20 10:17:24;;;;;;;4.35;1.17;;;;;;;7.30;100.00;100143.38;5017616;28;20026;-57
2022/12/20 10:20:01;;;;;;;2.15;0.20;;;;;;;7.32;100.00;100150.09;5027324;28;20556;-57
2022/12/20 10:22:39;;;;;;;1.73;0.30;;;;;;;7.38;100.00;100148.56;5028453;28;20113;-57
2022/12/20 10:25:19;;;;;;;2.58;0.32;;;;;;;7.39;100.00;100140.50;5023686;28;20108;-55
2022/12/20 10:27:46;;;;;;;2.63;0.10;;;;;;;7.42;100.00;100136.69;5019106;28;20479;-55
2022/12/20 10:30:17;;;;;;;4.35;1.40;;;;;;;7.45;100.00;100138.94;5020755;28;21015;-58
2022/12/20 10:32:46;;;;;;;0.57;0.17;;;;;;;7.48;100.00;100138.59;5020751;28;20022;-60
2022/12/20 10:35:14;;;;;;;2.65;0.50;;;;;;;7.50;100.00;100141.06;5014943;28;20036;-60
2022/12/20 10:37:56;;;;;;;1.42;0.68;;;;;;;7.56;100.00;100151.72;5024904;28;20105;-60
2022/12/20 10:40:35;;;;;;;2.63;0.20;;;;;;;7.60;100.00;100137.16;5024809;28;20517;-57
2022/12/20 10:43:02;;;;;;;4.68;0.95;;;;;;;7.62;100.00;100137.00;5020909;28;20041;-55
2022/12/20 10:45:34;;;;;;;5.53;1.23;;;;;;;7.65;100.00;100141.91;5016804;28;20068;-60
2022/12/20 10:48:02;;;;;;;3.35;1.10;;;;;;;7.68;100.00;100140.72;5018221;28;20452;-54
2022/12/20 10:50:28;;;;;;;4.00;1.23;;;;;;;7.68;100.00;100132.81;5028751;28;20479;-59
2022/12/20 10:53:20;;;;;;;2.65;0.50;;;;;;;7.76;100.00;100130.91;5026859;28;20065;-57
2022/12/20 10:55:46;;;;;;;5.80;1.05;;;;;;;7.79;100.00;100142.91;5027854;28;20041;-57
2022/12/20 10:58:16;;;;;;;2.13;0.85;;;;;;;7.80;100.00;100137.47;5028027;28;20029;-57
2022/12/20 11:00:43;;;;;;;6.10;1.15;;;;;;;7.84;100.00;100122.88;5029542;28;20029;-57
2022/12/20 11:03:14;;;;;;;8.32;0.65;;;;;;;7.91;100.00;100123.00;5029296;28;20030;-59
2022/12/20 11:05:51;;;;;;;3.45;1.00;;;;;;;7.93;100.00;100115.72;5026938;28;20558;-57
2022/12/20 11:08:17;;;;;;;2.45;0.22;;;;;;;7.96;100.00;100107.44;5033981;28;20367;-57
2022/12/20 11:10:43;;;;;;;7.20;0.57;;;;;;;8.02;100.00;100098.75;5027029;28;20075;-56
2022/12/20 11:13:20;;;;;;;12.98;2.30;;;;;;;8.09;100.00;100109.41;5029066;28;20033;-56
2022/12/20 11:15:53;;;;;;;6.05;0.77;;;;;;;8.09;100.00;100104.94;5030495;28;20032;-58
2022/12/20 11:18:30;;;;;;;6.45;1.25;;;;;;;8.16;100.00;100110.34;5035340;28;20082;-58
2022/12/20 11:21:04;;;;;;;2.05;0.75;;;;;;;8.16;100.00;100099.78;5028039;28;20038;-59
2022/12/20 11:24:11;;;;;;;7.20;1.08;;;;;;;8.23;100.00;100107.75;5029494;28;20390;-59
2022/12/20 11:26:47;;;;;;;2.17;1.10;;;;;;;8.35;100.00;100100.19;5027476;28;20521;-56
2022/12/20 11:29:31;;;;;;;21.02;2.92;;;;;;;8.42;100.00;100103.75;5024523;28;20021;-59
2022/12/20 11:32:05;;;;;;;4.88;1.02;;;;;;;8.44;100.00;100109.66;5025779;28;20045;-56
2022/12/20 11:34:42;;;;;;;6.40;3.00;;;;;;;8.52;100.00;100109.56;5036752;28;20050;-57
2022/12/20 11:37:10;;;;;;;5.55;0.82;;;;;;;8.51;100.00;100113.19;5020055;28;20034;-59
2022/12/20 11:39:49;;;;;;;7.38;1.13;;;;;;;8.60;100.00;100119.19;5022556;28;20043;-61
2022/12/20 11:42:36;;;;;;;10.93;2.45;;;;;;;8.66;100.00;100115.81;5029152;28;20044;-56
2022/12/20 11:45:29;;;;;;;6.53;2.88;;;;;;;8.78;100.00;100114.31;5030444;28;20040;-60